Aeroporto :
LOGIN :

Iscrizione | Disclaimer

   EN    FR    IT 

 










Sommario :    VFR   VFR Marginale   IFR   IFR Intensivo   IFR Molto Intensivo
Visibilità : 
Base nubi : 
>= 8 km
>= 3000ft
5 / 8 km
1000 / 3000 ft
1500m / 5 km
500 / 1000 ft
800 / 1500m
200 / 500 ft
< 800m
< 200 ft
Simboli :   Temporali  Nebbia  Neve Forte  Precipitazioni Forti  Vento > 20 kt
SIGMETs :   Varie  Temporali  Ghiacco  Turbolenza  Onda orograficha  Ceneri Vulcaniche






- Altitudine del aeroporto : 126 ft
- Codice IATA : WIC


EGPC - Wick

ULTIMO METAR :
  • 250220Z AUTO 22007KT 9999 NCD 10/06 Q1028

METARs OBSOLETI :
  • 250150Z AUTO 22005KT 9999 NCD 10/06 Q1028
  • 250120Z AUTO 21004KT 170V240 9999 NCD 09/07 Q1028
  • 250050Z AUTO VRB02KT 9999 NCD 09/06 Q1027
  • 250020Z AUTO 20004KT 9999 NCD 10/06 Q1027
  • 242350Z AUTO 25007KT 9999 NCD 11/06 Q1027
  • 242320Z AUTO VRB03KT 9999 NCD 11/05 Q1027

TAF TAF EGPC
Valido dal 24 a 21 ore il 25 a 06 ore UTC


241959Z 2421/2506 26010KT 9999 FEW010 SCT025
BECMG 2421/2424 20009KT
ATIS : +44 1955 607 596



MetMap, La meteo Aeronautica in un colpo d'occhio ! - Copyright ORBIFLY Dicembre 2007 - Disclaimer

ORBIFLY MET'MAP TEAM :

Programmazione e sviluppo : Alexandra Zaïnal
Concezione : Baudouin d'Aumeries
Aiuto per la programmazione : Marc-Olivier Méhu
Supporto tecnico e logistico : Manuel Goepfert
Aiuto per la traduzione : Arnaldo La Scala

Contatto : metmap@orbifly.com




FONTI E CREDITI :

   NOAA